createdAt,value
2019-02-24T00:00:48.251Z,16.57
2019-02-24T00:03:18.885Z,17.02
2019-02-24T00:05:49.697Z,19.92
2019-02-24T00:08:23.663Z,12.78
2019-02-24T00:10:56.971Z,19.57
2019-02-24T00:13:27.795Z,19.45
2019-02-24T00:15:58.535Z,14.53
2019-02-24T00:18:29.400Z,23.55
2019-02-24T00:21:00.165Z,17.87
2019-02-24T00:23:35.236Z,22.82
2019-02-24T00:26:09.789Z,26.87
2019-02-24T00:28:40.515Z,21.17
2019-02-24T00:31:13.996Z,26.05
2019-02-24T00:33:47.391Z,38.30
2019-02-24T00:36:18.165Z,58.42
2019-02-24T00:38:49.498Z,71.20
2019-02-24T00:41:20.807Z,60.08
2019-02-24T00:43:51.698Z,56.30
2019-02-24T00:46:24.758Z,40.60
2019-02-24T00:48:55.550Z,29.82
2019-02-24T00:51:26.625Z,34.67
2019-02-24T00:53:57.403Z,43.28
2019-02-24T00:56:28.119Z,36.40
2019-02-24T00:58:58.909Z,39.63
2019-02-24T01:01:29.723Z,24.52
2019-02-24T01:04:00.894Z,31.90
2019-02-24T01:06:31.677Z,35.48
2019-02-24T01:09:02.454Z,32.73
2019-02-24T01:11:34.446Z,34.53
2019-02-24T01:14:05.171Z,30.97
2019-02-24T01:16:36.385Z,36.58
2019-02-24T01:19:07.154Z,32.13
2019-02-24T01:21:38.115Z,33.88
2019-02-24T01:24:08.822Z,32.30
2019-02-24T01:26:41.160Z,19.82
2019-02-24T01:29:11.903Z,28.50
2019-02-24T01:31:42.760Z,21.65
2019-02-24T01:34:13.480Z,27.55
2019-02-24T01:36:45.485Z,25.10
2019-02-24T01:39:17.093Z,22.48
2019-02-24T01:41:47.863Z,28.38
2019-02-24T01:44:18.599Z,31.42
2019-02-24T01:46:49.397Z,37.50
2019-02-24T01:49:20.175Z,35.30
2019-02-24T01:51:50.927Z,31.12
2019-02-24T01:54:21.684Z,27.10
2019-02-24T01:56:52.454Z,25.77
2019-02-24T01:59:23.230Z,29.05
2019-02-24T02:01:53.945Z,20.32
2019-02-24T02:04:24.702Z,30.12
2019-02-24T02:06:55.480Z,28.42
2019-02-24T02:09:26.269Z,28.50
2019-02-24T02:11:56.974Z,34.40
2019-02-24T02:14:27.762Z,25.43
2019-02-24T02:16:58.522Z,28.62
2019-02-24T02:19:29.316Z,27.22
2019-02-24T02:22:00.042Z,47.90
2019-02-24T02:24:30.852Z,34.98
2019-02-24T02:27:01.685Z,32.38
2019-02-24T02:29:32.447Z,28.27
2019-02-24T02:32:03.152Z,27.90
2019-02-24T02:34:33.889Z,30.12
2019-02-24T02:37:04.662Z,29.32
2019-02-24T02:39:35.547Z,31.35
2019-02-24T02:42:06.293Z,32.78
2019-02-24T02:44:37.134Z,29.23
2019-02-24T02:47:07.933Z,29.82
2019-02-24T02:49:39.169Z,28.67
2019-02-24T02:52:09.848Z,26.05
2019-02-24T02:54:40.680Z,33.40
2019-02-24T02:57:11.465Z,31.45
2019-02-24T02:59:44.875Z,22.93
2019-02-24T03:02:24.161Z,22.82
2019-02-24T03:04:49.621Z,18.62
2019-02-24T03:07:24.645Z,19.90
2019-02-24T03:09:55.360Z,28.15
2019-02-24T03:12:26.189Z,30.45
2019-02-24T03:14:57.851Z,35.65
2019-02-24T03:17:28.819Z,39.25
2019-02-24T03:19:59.546Z,31.75
2019-02-24T03:22:30.803Z,31.95
2019-02-24T03:25:03.130Z,44.27
2019-02-24T03:27:33.831Z,40.83
2019-02-24T03:30:05.141Z,47.25
2019-02-24T03:32:37.445Z,37.67
2019-02-24T03:35:09.043Z,39.35
2019-02-24T03:37:39.794Z,37.85
2019-02-24T03:40:10.832Z,35.30
2019-02-24T03:42:41.650Z,32.20
2019-02-24T03:45:12.391Z,34.95
2019-02-24T03:47:44.671Z,36.25
2019-02-24T03:50:17.972Z,34.23
2019-02-24T03:52:48.726Z,33.02
2019-02-24T03:55:19.427Z,36.42
2019-02-24T03:57:50.270Z,34.33
2019-02-24T04:00:21.021Z,42.27
2019-02-24T04:02:51.778Z,62.40
2019-02-24T04:05:22.512Z,56.58
2019-02-24T04:07:54.299Z,62.38
2019-02-24T04:10:26.343Z,63.42
2019-02-24T04:12:57.094Z,59.50
2019-02-24T04:15:27.824Z,65.52
2019-02-24T04:17:58.584Z,65.05
2019-02-24T04:20:29.321Z,59.85
2019-02-24T04:23:00.105Z,55.12
2019-02-24T04:25:32.394Z,53.98
2019-02-24T04:28:03.128Z,50.92
2019-02-24T04:30:34.341Z,58.48
2019-02-24T04:33:05.165Z,61.70
2019-02-24T04:35:35.939Z,83.50
2019-02-24T04:38:06.696Z,61.40
2019-02-24T04:40:37.421Z,65.67
2019-02-24T04:43:08.213Z,56.10
2019-02-24T04:45:39.106Z,61.77
2019-02-24T04:48:11.319Z,57.58
2019-02-24T04:50:42.071Z,43.08
2019-02-24T04:53:15.156Z,47.40
2019-02-24T04:55:49.623Z,63.10
2019-02-24T04:58:23.919Z,79.67
2019-02-24T05:00:54.758Z,40.30
2019-02-24T05:03:28.170Z,38.78
2019-02-24T05:05:59.082Z,23.55
2019-02-24T05:08:31.488Z,22.05
2019-02-24T05:11:02.372Z,32.13
2019-02-24T05:13:34.371Z,27.70
2019-02-24T05:16:05.300Z,24.95
2019-02-24T05:18:39.160Z,24.77
2019-02-24T05:21:09.935Z,26.17
2019-02-24T05:23:42.885Z,30.97
2019-02-24T05:26:13.290Z,27.67
2019-02-24T05:28:45.633Z,35.10
2019-02-24T05:31:18.081Z,25.20
2019-02-24T05:33:48.998Z,28.98
2019-02-24T05:36:19.831Z,30.23
2019-02-24T05:38:50.537Z,32.28
2019-02-24T05:41:21.328Z,29.92
2019-02-24T05:43:52.074Z,40.88
2019-02-24T05:46:22.876Z,40.70
2019-02-24T05:48:53.684Z,42.03
2019-02-24T05:51:24.498Z,50.23
2019-02-24T05:53:55.319Z,44.35
2019-02-24T05:56:26.102Z,41.20
2019-02-24T05:58:59.047Z,63.15
2019-02-24T06:01:29.962Z,44.13
2019-02-24T06:04:00.710Z,52.67
2019-02-24T06:06:31.491Z,51.23
2019-02-24T06:09:02.338Z,44.77
2019-02-24T06:11:33.198Z,44.65
2019-02-24T06:14:06.868Z,33.02
2019-02-24T06:16:40.203Z,28.27
2019-02-24T06:19:11.013Z,27.20
2019-02-24T06:21:46.798Z,27.73
2019-02-24T06:24:17.750Z,20.45
2019-02-24T06:27:00.235Z,21.57
2019-02-24T06:29:35.283Z,30.90
2019-02-24T06:32:06.724Z,21.52
2019-02-24T06:34:39.758Z,20.50
2019-02-24T06:37:10.285Z,15.47
2019-02-24T06:39:40.815Z,11.87
2019-02-24T06:42:13.023Z,15.53
2019-02-24T06:44:43.474Z,15.10
2019-02-24T06:47:15.993Z,18.13
2019-02-24T06:49:48.062Z,15.07
2019-02-24T06:52:27.986Z,10.97
2019-02-24T06:54:59.092Z,11.77
2019-02-24T06:57:29.698Z,15.43
2019-02-24T07:00:04.454Z,14.50
2019-02-24T07:02:39.171Z,10.57
2019-02-24T07:05:11.305Z,13.03
2019-02-24T07:07:41.790Z,15.27
2019-02-24T07:10:12.399Z,12.57
2019-02-24T07:12:47.221Z,12.90
2019-02-24T07:15:22.844Z,23.13
2019-02-24T07:17:54.645Z,16.00
2019-02-24T07:24:11.344Z,24.63
2019-02-24T07:26:58.369Z,17.73
2019-02-24T07:29:29.309Z,17.60
2019-02-24T07:32:07.470Z,16.03
2019-02-24T07:34:38.083Z,19.43
2019-02-24T07:37:13.038Z,31.63
2019-02-24T07:39:54.833Z,21.80
2019-02-24T07:42:32.484Z,23.20
2019-02-24T07:45:06.252Z,23.00
2019-02-24T07:47:36.814Z,22.83
2019-02-24T07:53:20.465Z,38.17
2019-02-24T07:55:50.924Z,34.00
2019-02-24T07:58:21.380Z,38.20
2019-02-24T08:00:51.863Z,36.20
2019-02-24T08:03:23.160Z,28.57
2019-02-24T08:05:57.738Z,27.63
2019-02-24T08:08:28.330Z,34.97
2019-02-24T08:10:58.988Z,34.90
2019-02-24T08:13:29.748Z,30.67
2019-02-24T08:16:00.350Z,31.33
2019-02-24T08:18:30.823Z,25.17
2019-02-24T08:21:01.438Z,20.60
2019-02-24T08:23:32.017Z,22.00
2019-02-24T08:26:02.563Z,20.47
2019-02-24T08:28:34.670Z,19.77
2019-02-24T08:31:05.116Z,28.00
2019-02-24T08:33:40.502Z,25.97
2019-02-24T08:36:14.114Z,29.20
2019-02-24T08:38:47.815Z,27.70
2019-02-24T08:41:18.477Z,47.70
2019-02-24T08:43:53.661Z,27.53
2019-02-24T08:46:27.494Z,24.00
2019-02-24T08:52:14.740Z,35.97
2019-02-24T08:54:46.524Z,35.47
2019-02-24T09:00:58.919Z,29.93
2019-02-24T09:03:29.554Z,34.80
2019-02-24T09:06:03.095Z,33.47
2019-02-24T09:08:34.623Z,31.90
2019-02-24T09:11:05.650Z,36.53
2019-02-24T09:13:39.348Z,25.00
2019-02-24T09:16:09.488Z,16.93
2019-02-24T09:18:40.000Z,25.27
2019-02-24T09:21:27.289Z,24.27
2019-02-24T09:23:59.314Z,24.43
2019-02-24T09:26:29.887Z,16.67
2019-02-24T09:29:10.684Z,18.53
2019-02-24T09:31:43.906Z,27.37
2019-02-24T09:34:36.017Z,17.27
2019-02-24T09:37:07.408Z,19.70
2019-02-24T09:39:37.941Z,22.53
2019-02-24T09:42:19.181Z,17.67
2019-02-24T09:44:51.857Z,29.67
2019-02-24T09:50:04.189Z,25.03
2019-02-24T09:52:43.657Z,33.93
2019-02-24T09:55:14.142Z,21.30
2019-02-24T09:57:47.836Z,18.77
2019-02-24T10:00:25.539Z,19.00
2019-02-24T10:02:57.537Z,17.77
2019-02-24T10:05:33.771Z,15.33
2019-02-24T10:08:04.538Z,17.40
2019-02-24T10:11:07.301Z,14.00
2019-02-24T10:13:37.735Z,13.90
2019-02-24T10:19:16.045Z,17.57
2019-02-24T10:21:48.791Z,11.07
2019-02-24T10:24:20.608Z,8.70
2019-02-24T10:26:50.994Z,9.60
2019-02-24T10:29:21.548Z,10.63
2019-02-24T10:31:55.874Z,9.77
2019-02-24T10:34:26.328Z,19.43
2019-02-24T10:36:56.937Z,22.73
2019-02-24T10:39:29.864Z,14.03
2019-02-24T10:44:50.721Z,17.57
2019-02-24T10:47:21.176Z,7.43
2019-02-24T10:49:51.764Z,6.77
2019-02-24T10:52:31.372Z,8.47
2019-02-24T10:55:02.010Z,14.90
2019-02-24T10:57:46.859Z,11.10
2019-02-24T11:00:19.348Z,10.13
2019-02-24T11:02:49.794Z,15.87
2019-02-24T11:05:20.479Z,13.33
2019-02-24T11:07:50.930Z,11.17
2019-02-24T11:10:21.571Z,10.40
2019-02-24T11:12:55.218Z,5.10
2019-02-24T11:15:25.823Z,9.70
2019-02-24T11:17:56.251Z,9.57
2019-02-24T11:20:26.745Z,8.13
2019-02-24T11:23:16.222Z,10.77
2019-02-24T11:25:51.765Z,13.10
2019-02-24T11:28:23.601Z,9.30
2019-02-24T11:31:10.190Z,6.70
2019-02-24T11:33:40.641Z,7.13
2019-02-24T11:36:11.198Z,15.17
2019-02-24T11:41:53.325Z,14.00
2019-02-24T11:44:23.867Z,11.90
2019-02-24T11:47:18.112Z,11.40
2019-02-24T11:49:49.920Z,10.77
2019-02-24T11:52:20.492Z,7.93
2019-02-24T11:54:50.955Z,7.93
2019-02-24T11:57:24.659Z,7.87
2019-02-24T11:59:56.972Z,7.03
2019-02-24T12:02:34.152Z,6.27
2019-02-24T12:07:49.035Z,9.47
2019-02-24T12:10:19.480Z,10.87
2019-02-24T12:12:50.109Z,14.07
2019-02-24T12:15:22.025Z,7.73
2019-02-24T12:17:52.600Z,11.90
2019-02-24T12:20:25.454Z,7.30
2019-02-24T12:23:18.445Z,9.33
2019-02-24T12:25:48.969Z,7.27
2019-02-24T12:28:19.435Z,7.37
2019-02-24T12:30:51.900Z,8.00
2019-02-24T12:33:26.175Z,4.60
2019-02-24T12:38:54.625Z,10.23
2019-02-24T12:41:20.391Z,6.43
2019-02-24T12:43:53.545Z,10.57
2019-02-24T12:46:26.793Z,9.43
2019-02-24T12:48:57.358Z,6.17
2019-02-24T12:51:29.489Z,7.53
2019-02-24T12:54:00.008Z,6.17
2019-02-24T12:56:30.483Z,6.70
2019-02-24T12:59:00.897Z,10.50
2019-02-24T13:01:32.011Z,6.57
2019-02-24T13:04:03.590Z,5.50
2019-02-24T13:06:48.726Z,8.57
2019-02-24T13:09:45.245Z,7.33
2019-02-24T13:12:20.025Z,13.70
2019-02-24T13:14:50.831Z,5.17
2019-02-24T13:17:21.253Z,10.60
2019-02-24T13:19:51.733Z,18.20
2019-02-24T13:22:23.214Z,7.53
2019-02-24T13:24:57.557Z,12.47
2019-02-24T13:30:21.959Z,10.37
2019-02-24T13:32:52.396Z,10.10
2019-02-24T13:35:22.969Z,10.70
2019-02-24T13:37:53.510Z,22.07
2019-02-24T13:40:27.753Z,17.77
2019-02-24T13:42:58.198Z,15.27
2019-02-24T13:45:28.664Z,17.13
2019-02-24T13:47:59.100Z,20.40
2019-02-24T13:50:29.578Z,21.17
2019-02-24T13:53:02.796Z,26.33
2019-02-24T13:55:33.286Z,24.83
2019-02-24T13:58:04.567Z,22.10
2019-02-24T14:00:35.079Z,21.37
2019-02-24T14:03:05.507Z,14.20
2019-02-24T14:05:36.049Z,16.93
2019-02-24T14:08:06.478Z,18.40
2019-02-24T14:10:36.935Z,15.80
2019-02-24T14:13:07.440Z,18.33
2019-02-24T14:15:37.894Z,22.27
2019-02-24T14:18:09.824Z,24.97
2019-02-24T14:20:40.582Z,19.47
2019-02-24T14:23:11.065Z,16.73
2019-02-24T14:25:41.442Z,17.73
2019-02-24T14:28:11.894Z,19.83
2019-02-24T14:30:42.357Z,18.30
2019-02-24T14:33:12.859Z,11.03
2019-02-24T14:35:43.385Z,15.53
2019-02-24T14:38:13.842Z,16.20
2019-02-24T14:40:45.480Z,24.20
2019-02-24T14:43:15.931Z,17.40
2019-02-24T14:45:49.628Z,15.10
2019-02-24T14:48:18.483Z,9.03
2019-02-24T14:50:48.942Z,8.90
2019-02-24T14:53:19.504Z,10.13
2019-02-24T14:55:50.005Z,9.97
2019-02-24T14:58:22.119Z,9.33
2019-02-24T15:00:52.567Z,14.03
2019-02-24T15:03:23.125Z,8.23
2019-02-24T15:05:53.654Z,8.10
2019-02-24T15:08:24.089Z,21.87
2019-02-24T15:12:40.601Z,12.13
2019-02-24T15:14:27.542Z,12.47
2019-02-24T15:17:48.165Z,13.73
2019-02-24T15:19:54.122Z,14.53
2019-02-24T15:22:35.248Z,13.47
2019-02-24T15:25:02.849Z,16.00
2019-02-24T15:27:39.918Z,14.17
2019-02-24T15:30:23.735Z,16.10
2019-02-24T15:46:47.321Z,17.67
2019-02-24T15:52:25.728Z,14.83
2019-02-24T16:03:54.176Z,22.27
2019-02-24T16:22:32.890Z,31.40
2019-02-24T16:33:51.513Z,35.93
2019-02-24T16:36:25.293Z,28.23
2019-02-24T16:42:28.732Z,22.20
2019-02-24T16:45:03.676Z,24.13
2019-02-24T16:47:38.197Z,21.03
2019-02-24T16:57:04.612Z,27.30
2019-02-24T17:16:51.534Z,38.60
2019-02-24T17:19:24.956Z,50.60
2019-02-24T17:21:56.955Z,43.03
2019-02-24T17:27:58.370Z,46.87
2019-02-24T17:33:40.650Z,36.63
2019-02-24T17:39:20.435Z,31.70
2019-02-24T17:41:55.408Z,32.73
2019-02-24T17:54:07.868Z,20.63
2019-02-24T17:59:40.394Z,29.33
2019-02-24T18:02:14.296Z,23.87
2019-02-24T18:14:22.088Z,34.20
2019-02-24T18:25:49.581Z,32.73
2019-02-24T18:31:50.607Z,29.87
2019-02-24T18:34:48.600Z,31.07
2019-02-24T18:43:07.625Z,34.77
2019-02-24T18:48:37.143Z,25.37
2019-02-24T18:51:12.540Z,34.43
2019-02-24T18:53:43.131Z,31.83
2019-02-24T19:02:40.618Z,21.20
2019-02-24T19:08:35.748Z,20.47
2019-02-24T19:14:02.324Z,23.07
2019-02-24T19:19:48.445Z,19.77
2019-02-24T19:22:27.204Z,24.60
2019-02-24T19:28:04.873Z,20.43
2019-02-24T19:30:36.822Z,22.17
2019-02-24T19:33:23.686Z,18.50
2019-02-24T19:35:54.375Z,24.17
2019-02-24T19:41:22.066Z,25.83
2019-02-24T19:43:55.199Z,20.10
2019-02-24T19:49:21.098Z,20.63
2019-02-24T19:55:37.984Z,18.03
2019-02-24T19:58:18.052Z,20.93
2019-02-24T20:07:42.313Z,24.27
2019-02-24T21:07:12.655Z,23.40
2019-02-24T21:14:48.281Z,22.33
